Time;durP1;ratioP1;P1;durP2;ratioP2;P2;SDS_P1;SDS_P2;PMS_P1;PMS_P2;Temp;Humidity;BMP_temperature;BMP_pressure;BME280_temperature;BME280_humidity;BME280_pressure;Samples;Min_cycle;Max_cycle;Signal;HPM_P1;HPM_P2
2022/10/15 00:04:00;;;;;;;5.63;2.67;;;20.50;80.20;;;;;;10345366;28;20133;-40
2022/10/15 00:09:04;;;;;;;14.27;9.15;;;20.00;82.00;;;;;;10370201;28;20080;-39
2022/10/15 00:14:06;;;;;;;11.32;6.95;;;19.60;83.80;;;;;;10348263;28;20581;-39
2022/10/15 00:19:08;;;;;;;3.22;2.40;;;18.80;88.30;;;;;;10372107;28;20108;-38
2022/10/15 00:24:11;;;;;;;24.30;6.93;;;19.30;86.80;;;;;;10358520;28;20100;-38
2022/10/15 00:29:13;;;;;;;4.20;2.15;;;19.10;87.60;;;;;;10356131;28;20332;-41
2022/10/15 00:34:15;;;;;;;2.15;1.60;;;19.60;85.50;;;;;;10359961;28;20056;-41
2022/10/15 00:39:18;;;;;;;14.35;7.47;;;20.10;82.90;;;;;;10359352;28;20141;-40
2022/10/15 00:44:49;;;;;;;3.92;1.98;;;20.00;82.70;;;;;;10358154;28;20069;-39
2022/10/15 00:49:57;;;;;;;7.40;2.95;;;19.70;85.00;;;;;;10365098;28;20089;-41
2022/10/15 00:55:06;;;;;;;12.45;8.35;;;20.00;82.70;;;;;;10361963;28;20100;-40
2022/10/15 01:00:11;;;;;;;3.38;1.80;;;19.70;84.30;;;;;;10355125;28;20069;-41
2022/10/15 01:05:15;;;;;;;9.23;4.95;;;20.10;82.60;;;;;;10346886;28;20077;-41
2022/10/15 01:10:20;;;;;;;2.50;1.40;;;20.00;83.00;;;;;;10352506;28;20101;-40
2022/10/15 01:15:26;;;;;;;4.80;2.33;;;20.10;82.50;;;;;;10348864;28;20081;-40
2022/10/15 01:20:51;;;;;;;13.35;9.15;;;20.10;82.00;;;;;;10362753;28;20061;-41
2022/10/15 01:26:07;;;;;;;2.60;1.40;;;19.70;84.80;;;;;;10336916;28;20447;-41
2022/10/15 01:31:17;;;;;;;4.55;1.20;;;19.80;84.00;;;;;;10356025;28;20060;-40
2022/10/15 01:36:24;;;;;;;12.88;6.47;;;20.00;82.90;;;;;;10351629;28;20045;-41
2022/10/15 01:41:32;;;;;;;2.38;1.50;;;20.10;81.90;;;;;;10334590;28;20116;-41
2022/10/15 01:46:40;;;;;;;2.38;1.30;;;20.10;82.80;;;;;;10352894;28;20065;-41
2022/10/15 01:51:44;;;;;;;10.77;7.38;;;20.20;81.90;;;;;;10350608;28;20050;-38
2022/10/15 01:56:49;;;;;;;14.00;5.32;;;20.20;81.00;;;;;;10361818;28;20038;-39
2022/10/15 02:01:52;;;;;;;3.47;1.70;;;20.10;81.50;;;;;;10362886;28;20037;-41
2022/10/15 02:07:01;;;;;;;3.10;1.50;;;19.90;83.40;;;;;;10374068;28;20533;-37
2022/10/15 02:12:13;;;;;;;6.38;3.47;;;20.10;82.20;;;;;;10372746;28;20509;-38
2022/10/15 02:17:23;;;;;;;5.30;3.83;;;19.80;83.90;;;;;;10356560;28;20073;-38
2022/10/15 02:22:28;;;;;;;3.17;1.63;;;20.00;83.30;;;;;;10358825;28;20143;-38
2022/10/15 02:27:32;;;;;;;1.50;1.13;;;20.10;82.30;;;;;;10353150;28;20160;-40
2022/10/15 02:32:38;;;;;;;9.68;6.20;;;20.30;81.50;;;;;;10344612;28;20153;-39
2022/10/15 02:37:44;;;;;;;14.18;6.22;;;20.20;81.40;;;;;;10367992;28;20461;-40
2022/10/15 02:42:46;;;;;;;6.57;4.43;;;19.60;84.70;;;;;;10368246;28;20483;-38
2022/10/15 02:47:49;;;;;;;1.83;1.25;;;19.40;85.90;;;;;;10362692;28;20110;-36
2022/10/15 02:52:52;;;;;;;3.63;1.90;;;20.30;81.50;;;;;;10372718;28;20143;-41
2022/10/15 02:57:54;;;;;;;15.98;9.15;;;20.00;83.10;;;;;;10362567;28;20132;-39
2022/10/15 03:02:57;;;;;;;3.03;1.55;;;20.10;82.10;;;;;;10373023;28;20064;-39
2022/10/15 03:07:59;;;;;;;2.63;1.75;;;20.00;82.90;;;;;;10366678;28;20144;-41
2022/10/15 03:13:03;;;;;;;2.50;1.60;;;20.00;83.20;;;;;;10355976;28;20141;-39
2022/10/15 03:18:07;;;;;;;2.53;1.20;;;20.20;81.80;;;;;;10371481;28;20058;-38
2022/10/15 03:23:11;;;;;;;4.05;2.25;;;20.40;80.90;;;;;;10370427;28;20213;-38
2022/10/15 03:28:13;;;;;;;3.15;1.70;;;20.30;81.00;;;;;;10375045;28;20777;-39
2022/10/15 03:33:16;;;;;;;2.58;1.50;;;20.30;81.20;;;;;;10359779;28;20058;-38
2022/10/15 03:38:18;;;;;;;11.88;7.70;;;20.00;82.50;;;;;;10352963;28;20493;-38
2022/10/15 03:43:19;;;;;;;17.80;10.88;;;19.70;84.00;;;;;;10368013;28;20518;-39
2022/10/15 03:48:23;;;;;;;3.63;1.70;;;19.10;86.70;;;;;;10374103;28;20073;-39
2022/10/15 03:53:25;;;;;;;7.50;5.82;;;19.40;85.90;;;;;;10359541;28;20049;-45
2022/10/15 03:58:27;;;;;;;12.23;7.05;;;19.00;87.60;;;;;;10367667;28;20042;-40
2022/10/15 04:03:30;;;;;;;10.82;7.28;;;18.20;91.20;;;;;;10372146;28;20140;-37
2022/10/15 04:08:33;;;;;;;9.48;5.30;;;19.20;87.60;;;;;;10347516;28;20042;-40
2022/10/15 04:13:34;;;;;;;;;;;18.90;89.20;;;;;;10348149;28;20141;-39
2022/10/15 04:18:38;;;;;;;1.75;1.33;;;19.50;86.10;;;;;;10357523;28;19960;-39
2022/10/15 04:23:39;;;;;;;2.05;1.70;;;19.70;85.00;;;;;;10367147;28;20069;-38
2022/10/15 04:28:41;;;;;;;5.80;3.60;;;19.60;84.80;;;;;;10354791;28;20069;-41
2022/10/15 04:33:47;;;;;;;4.75;3.28;;;19.60;84.70;;;;;;10349707;28;20057;-37
2022/10/15 04:38:49;;;;;;;1.63;1.00;;;19.70;84.30;;;;;;10355282;28;20109;-38
2022/10/15 04:43:51;;;;;;;1.30;1.20;;;20.00;82.20;;;;;;10364293;28;20463;-39
2022/10/15 04:48:56;;;;;;;1.35;1.17;;;20.10;81.60;;;;;;10347027;28;20042;-40
2022/10/15 04:54:00;;;;;;;9.85;6.70;;;20.30;81.00;;;;;;10352807;28;20052;-39
2022/10/15 04:59:06;;;;;;;7.93;3.88;;;19.40;85.00;;;;;;10349055;28;20125;-40
2022/10/15 05:04:11;;;;;;;1.98;1.67;;;19.70;83.90;;;;;;10357750;28;20049;-40
2022/10/15 05:09:13;;;;;;;3.42;1.40;;;19.70;84.40;;;;;;10356979;28;20045;-42
2022/10/15 05:14:15;;;;;;;2.22;1.92;;;19.90;83.10;;;;;;10346938;28;20141;-40
2022/10/15 05:19:19;;;;;;;1.00;0.90;;;20.10;81.60;;;;;;10360039;28;20065;-39
2022/10/15 05:24:20;;;;;;;2.65;1.40;;;20.30;80.80;;;;;;10350092;28;20129;-39
2022/10/15 05:29:22;;;;;;;2.55;1.45;;;20.30;80.60;;;;;;10354472;28;20547;-38
2022/10/15 05:34:29;;;;;;;2.40;1.25;;;20.30;80.90;;;;;;10355972;28;20057;-42
2022/10/15 05:39:31;;;;;;;3.63;1.05;;;20.20;81.10;;;;;;10362368;28;20143;-40
2022/10/15 05:44:33;;;;;;;2.35;1.55;;;20.30;81.00;;;;;;10363448;28;20149;-41
2022/10/15 05:49:36;;;;;;;2.88;1.45;;;20.40;80.30;;;;;;10364500;28;20049;-37
2022/10/15 05:54:39;;;;;;;1.45;1.25;;;20.40;80.50;;;;;;10364819;28;20143;-39
2022/10/15 05:59:41;;;;;;;3.05;2.58;;;20.20;81.10;;;;;;10361408;28;20072;-41
2022/10/15 06:04:44;;;;;;;2.63;1.40;;;20.20;81.20;;;;;;10362792;28;20132;-40
2022/10/15 06:09:46;;;;;;;2.63;1.80;;;20.30;80.90;;;;;;10364845;28;20074;-39
2022/10/15 06:14:48;;;;;;;2.83;2.17;;;20.10;82.00;;;;;;10355319;28;20132;-39
2022/10/15 06:19:51;;;;;;;8.23;6.78;;;20.10;82.30;;;;;;10359523;28;20058;-41
2022/10/15 06:24:53;;;;;;;4.88;3.85;;;20.00;82.20;;;;;;10350175;28;20083;-38
2022/10/15 06:29:55;;;;;;;2.55;1.80;;;20.10;81.80;;;;;;10359829;28;20077;-38
2022/10/15 06:34:58;;;;;;;1.95;1.75;;;20.20;81.10;;;;;;10353118;28;20141;-38
2022/10/15 06:40:00;;;;;;;3.28;2.97;;;20.20;81.60;;;;;;10359856;28;20132;-39
2022/10/15 06:45:02;;;;;;;2.50;2.03;;;20.20;81.50;;;;;;10368818;28;20061;-40
2022/10/15 06:50:06;;;;;;;2.20;1.88;;;20.10;81.40;;;;;;10352602;28;20038;-42
2022/10/15 06:55:09;;;;;;;4.25;2.75;;;20.20;81.30;;;;;;10363840;28;20276;-38
2022/10/15 07:00:13;;;;;;;3.00;2.40;;;20.20;81.40;;;;;;10362366;28;20517;-39
2022/10/15 07:05:16;;;;;;;3.20;2.67;;;20.30;80.60;;;;;;10349355;28;20096;-39
2022/10/15 07:10:18;;;;;;;14.55;9.23;;;19.90;83.30;;;;;;10348435;28;20458;-39
2022/10/15 07:15:20;;;;;;;2.88;2.10;;;20.00;83.40;;;;;;10352760;28;20126;-39
2022/10/15 07:20:24;;;;;;;3.72;2.70;;;20.20;81.70;;;;;;10359842;28;20088;-39
2022/10/15 07:25:26;;;;;;;4.78;2.55;;;20.00;83.40;;;;;;10352768;28;20153;-38
2022/10/15 07:30:28;;;;;;;7.85;5.63;;;20.20;83.30;;;;;;10366519;28;20042;-41
2022/10/15 07:35:32;;;;;;;4.03;2.90;;;20.30;82.70;;;;;;10358327;28;20058;-40
2022/10/15 07:40:34;;;;;;;24.85;15.25;;;19.90;84.70;;;;;;10361458;28;20060;-38
2022/10/15 07:45:36;;;;;;;5.68;3.58;;;19.40;86.10;;;;;;10364875;28;20041;-40
2022/10/15 07:50:40;;;;;;;8.90;3.65;;;20.40;85.90;;;;;;10331084;28;20133;-39
2022/10/15 07:55:42;;;;;;;5.18;3.55;;;20.50;82.30;;;;;;10358402;28;20483;-39
2022/10/15 08:00:43;;;;;;;5.95;3.70;;;20.40;82.80;;;;;;10357262;28;20050;-42
2022/10/15 08:05:46;;;;;;;6.78;3.83;;;20.40;83.00;;;;;;10364557;28;20532;-42
2022/10/15 08:10:49;;;;;;;4.30;3.53;;;20.50;82.80;;;;;;10370673;28;20050;-45
2022/10/15 08:15:51;;;;;;;5.18;4.00;;;20.50;82.80;;;;;;10362508;28;20505;-38
2022/10/15 08:20:54;;;;;;;5.25;3.80;;;20.50;82.90;;;;;;10374587;28;20066;-40
2022/10/15 08:25:57;;;;;;;4.88;3.70;;;20.60;82.70;;;;;;10352398;28;20069;-39
2022/10/15 08:31:00;;;;;;;10.15;3.42;;;20.60;82.60;;;;;;10355446;28;20058;-40
2022/10/15 08:36:04;;;;;;;;;;;20.90;82.30;;;;;;10373883;28;20538;-39
2022/10/15 08:41:19;;;;;;;6.45;3.47;;;20.90;82.10;;;;;;10352550;28;19932;-39
2022/10/15 08:46:28;;;;;;;6.47;3.38;;;20.90;82.50;;;;;;10367257;28;20041;-38
2022/10/15 08:51:39;;;;;;;9.27;4.15;;;20.90;82.60;;;;;;10343642;28;20112;-39
2022/10/15 08:56:45;;;;;;;8.82;6.70;;;21.00;82.00;;;;;;10347880;28;20077;-39
2022/10/15 09:01:53;;;;;;;5.30;3.60;;;20.70;83.70;;;;;;10345091;28;20125;-41
2022/10/15 09:07:03;;;;;;;5.03;3.20;;;20.90;83.10;;;;;;10356231;28;20472;-39
2022/10/15 09:12:18;;;;;;;5.50;3.40;;;20.90;82.70;;;;;;10345400;28;20053;-41
2022/10/15 09:17:22;;;;;;;8.82;3.60;;;21.00;82.30;;;;;;10338840;28;20104;-39
2022/10/15 09:22:27;;;;;;;8.15;3.53;;;21.10;82.60;;;;;;10335404;28;20136;-39
2022/10/15 09:27:33;;;;;;;3.35;2.70;;;21.10;82.00;;;;;;10348571;28;20124;-39
2022/10/15 09:32:40;;;;;;;2.88;2.50;;;21.20;82.00;;;;;;10367172;28;20050;-40
2022/10/15 09:37:52;;;;;;;8.90;3.08;;;21.10;82.10;;;;;;10339983;28;20639;-39
2022/10/15 09:42:54;;;;;;;;;;;21.20;82.00;;;;;;10365428;28;20103;-40
2022/10/15 09:47:59;;;;;;;5.20;3.00;;;21.20;82.00;;;;;;10369240;28;20015;-39
2022/10/15 09:53:13;;;;;;;4.30;2.40;;;21.30;82.00;;;;;;10357225;28;20163;-38
2022/10/15 09:58:18;;;;;;;4.70;2.15;;;21.30;82.30;;;;;;10350605;28;20134;-37
2022/10/15 10:03:22;;;;;;;3.95;2.30;;;21.30;82.20;;;;;;10364968;28;20165;-40
2022/10/15 10:08:29;;;;;;;5.35;2.30;;;21.20;82.40;;;;;;10359017;28;20988;-40
2022/10/15 10:13:34;;;;;;;5.43;2.05;;;21.40;81.80;;;;;;10348981;28;20054;-40
2022/10/15 10:18:37;;;;;;;4.05;2.15;;;21.40;82.10;;;;;;10359179;28;20134;-40
2022/10/15 10:23:40;;;;;;;4.78;1.73;;;21.50;81.70;;;;;;10398976;28;20478;-40
2022/10/15 10:28:48;;;;;;;3.80;2.25;;;21.50;81.80;;;;;;10402539;28;20080;-42
2022/10/15 10:33:51;;;;;;;5.00;2.05;;;21.60;81.80;;;;;;10399012;28;20470;-40
2022/10/15 10:39:02;;;;;;;2.60;1.73;;;21.50;82.10;;;;;;10411122;28;20041;-41
2022/10/15 10:44:19;;;;;;;3.97;1.90;;;21.50;81.90;;;;;;10413597;28;20155;-39
2022/10/15 10:49:30;;;;;;;4.00;1.65;;;21.50;82.20;;;;;;10405131;28;20151;-41
2022/10/15 10:54:34;;;;;;;6.38;1.73;;;21.50;82.30;;;;;;10388722;28;20163;-40
2022/10/15 10:59:42;;;;;;;1.85;1.40;;;21.60;82.00;;;;;;10391639;28;20069;-40
2022/10/15 11:04:44;;;;;;;2.13;1.45;;;21.60;82.10;;;;;;10405524;28;20148;-37
2022/10/15 11:09:55;;;;;;;2.45;1.85;;;21.60;82.20;;;;;;10402379;28;20137;-41
2022/10/15 11:15:08;;;;;;;5.57;1.88;;;21.50;82.50;;;;;;10397012;28;20096;-40
2022/10/15 11:20:18;;;;;;;3.60;3.00;;;21.30;83.00;;;;;;10410277;28;20410;-39
2022/10/15 11:25:29;;;;;;;3.78;2.10;;;20.80;87.10;;;;;;10396474;28;20095;-40
2022/10/15 11:30:41;;;;;;;3.53;3.10;;;20.10;90.00;;;;;;10381856;28;20462;-40
2022/10/15 11:35:48;;;;;;;6.57;3.70;;;19.70;92.40;;;;;;10406786;28;20444;-40
2022/10/15 11:41:05;;;;;;;6.13;4.93;;;18.50;95.40;;;;;;10408704;28;20472;-42
2022/10/15 11:46:19;;;;;;;5.43;4.38;;;17.70;99.20;;;;;;10406490;28;20463;-40
2022/10/15 11:51:29;;;;;;;6.00;4.28;;;17.20;99.90;;;;;;10389576;28;20057;-42
2022/10/15 11:56:36;;;;;;;3.70;2.50;;;17.20;99.90;;;;;;10402175;28;20049;-41
2022/10/15 12:01:44;;;;;;;4.22;3.08;;;17.70;98.90;;;;;;10395336;28;20103;-41
2022/10/15 12:06:51;;;;;;;4.97;4.00;;;17.60;99.90;;;;;;10399081;28;20120;-40
2022/10/15 12:12:01;;;;;;;9.50;5.10;;;17.30;99.90;;;;;;10399523;28;20549;-41
2022/10/15 12:17:14;;;;;;;6.68;3.08;;;17.00;99.90;;;;;;10397496;28;20069;-40
2022/10/15 12:22:32;;;;;;;3.47;2.58;;;17.60;99.90;;;;;;10396810;28;20076;-41
2022/10/15 12:27:36;;;;;;;5.43;1.85;;;18.20;99.90;;;;;;10401140;28;20686;-41
2022/10/15 12:32:41;;;;;;;5.57;2.22;;;17.90;99.90;;;;;;10395034;28;20461;-42
2022/10/15 12:37:44;;;;;;;5.65;1.88;;;18.10;98.20;;;;;;10395984;28;20041;-41
2022/10/15 12:42:50;;;;;;;2.22;1.58;;;17.90;99.10;;;;;;10395687;28;20041;-39
2022/10/15 12:47:54;;;;;;;4.50;1.13;;;17.90;98.20;;;;;;10392720;28;20073;-40
2022/10/15 12:53:01;;;;;;;2.22;0.88;;;17.90;97.70;;;;;;10402094;28;20155;-40
2022/10/15 12:58:26;;;;;;;3.63;1.10;;;18.50;96.80;;;;;;10401218;28;20037;-43
2022/10/15 13:03:36;;;;;;;3.33;0.90;;;18.00;95.90;;;;;;10388583;28;20046;-41
2022/10/15 13:08:44;;;;;;;5.45;0.70;;;18.60;94.60;;;;;;10402138;28;20080;-40
2022/10/15 13:13:47;;;;;;;2.83;0.73;;;18.00;95.50;;;;;;10409974;28;20512;-41
2022/10/15 13:18:52;;;;;;;8.10;0.93;;;18.20;95.00;;;;;;10397588;28;20104;-38
2022/10/15 13:23:54;;;;;;;3.60;0.60;;;18.70;93.90;;;;;;10399329;28;20100;-44
2022/10/15 13:28:57;;;;;;;5.63;0.80;;;19.10;92.70;;;;;;10390133;28;20057;-39
2022/10/15 13:34:07;;;;;;;4.75;0.82;;;18.70;93.10;;;;;;10396302;28;21193;-43
2022/10/15 13:39:23;;;;;;;2.78;0.85;;;18.60;94.10;;;;;;10386902;28;20072;-41
2022/10/15 13:44:25;;;;;;;1.80;0.65;;;18.70;94.20;;;;;;10391908;28;20128;-44
2022/10/15 13:49:28;;;;;;;2.25;0.65;;;18.90;93.90;;;;;;10393828;28;20069;-45
2022/10/15 13:54:31;;;;;;;4.25;1.48;;;18.70;94.30;;;;;;10415737;28;20092;-43
2022/10/15 13:59:33;;;;;;;5.05;1.05;;;19.50;92.50;;;;;;10407759;28;20061;-41
2022/10/15 14:04:36;;;;;;;6.05;1.17;;;18.50;93.80;;;;;;10406563;28;20096;-41
2022/10/15 14:09:41;;;;;;;2.17;1.00;;;18.50;94.50;;;;;;10406752;28;20044;-42
2022/10/15 14:14:45;;;;;;;11.70;1.98;;;18.70;94.10;;;;;;10401777;28;20486;-41
2022/10/15 14:19:52;;;;;;;6.63;2.05;;;18.90;92.50;;;;;;10408845;28;20045;-41
2022/10/15 14:24:56;;;;;;;9.73;1.38;;;18.60;93.60;;;;;;10419127;28;20161;-40
2022/10/15 14:30:00;;;;;;;3.90;1.08;;;18.60;93.80;;;;;;10410960;28;20128;-44
2022/10/15 14:35:03;;;;;;;3.42;0.70;;;19.10;90.90;;;;;;10415496;28;20053;-43
2022/10/15 14:40:14;;;;;;;3.30;0.80;;;19.20;87.50;;;;;;10410616;28;20045;-40
2022/10/15 14:45:24;;;;;;;3.88;0.50;;;19.50;83.70;;;;;;10411618;28;20552;-40
2022/10/15 14:50:30;;;;;;;5.63;0.70;;;18.80;92.00;;;;;;10413677;28;21161;-40
2022/10/15 14:55:37;;;;;;;3.97;0.77;;;18.80;93.60;;;;;;10409650;28;20054;-36
2022/10/15 15:00:42;;;;;;;5.70;0.77;;;19.20;91.60;;;;;;10410201;28;20061;-40
2022/10/15 15:05:47;;;;;;;10.05;0.98;;;19.40;85.00;;;;;;10414106;28;20508;-43
2022/10/15 15:10:51;;;;;;;3.83;1.00;;;19.10;89.60;;;;;;10411337;28;20077;-39
2022/10/15 15:15:53;;;;;;;5.60;0.68;;;19.20;90.10;;;;;;10411382;28;20678;-41
2022/10/15 15:21:00;;;;;;;4.60;1.33;;;19.40;92.10;;;;;;10417800;28;20061;-43
2022/10/15 15:26:02;;;;;;;2.50;0.70;;;19.70;85.30;;;;;;10390321;28;20077;-41
2022/10/15 15:31:07;;;;;;;3.08;0.95;;;19.60;85.60;;;;;;10385967;28;20192;-40
2022/10/15 15:36:13;;;;;;;6.35;0.75;;;19.80;90.90;;;;;;10403216;28;20085;-42
2022/10/15 15:41:17;;;;;;;8.95;1.40;;;19.80;89.30;;;;;;10416666;28;20126;-40
2022/10/15 15:46:18;;;;;;;4.05;0.77;;;20.40;84.00;;;;;;10413557;28;20126;-41
2022/10/15 15:51:25;;;;;;;5.15;1.25;;;20.10;81.80;;;;;;10411313;28;20041;-42
2022/10/15 15:56:26;;;;;;;14.63;1.10;;;20.50;88.90;;;;;;10404774;28;20095;-40
2022/10/15 16:01:28;;;;;;;4.35;0.88;;;20.10;82.10;;;;;;10415363;28;20073;-41
2022/10/15 16:06:31;;;;;;;12.88;1.63;;;19.40;88.60;;;;;;10412515;28;20132;-41
2022/10/15 16:11:34;;;;;;;10.88;2.33;;;18.80;89.60;;;;;;10414719;28;20055;-41
2022/10/15 16:16:36;;;;;;;9.05;1.27;;;18.10;91.80;;;;;;10413719;28;20050;-40
2022/10/15 16:21:39;;;;;;;10.88;1.42;;;18.10;95.70;;;;;;10412954;28;20049;-39
2022/10/15 16:26:41;;;;;;;13.75;2.20;;;17.90;96.80;;;;;;10417211;28;20045;-40
2022/10/15 16:31:43;;;;;;;15.93;2.60;;;17.70;92.80;;;;;;10411273;28;20132;-38
2022/10/15 16:36:46;;;;;;;15.90;3.33;;;17.20;94.40;;;;;;10411756;28;20064;-42
2022/10/15 16:41:48;;;;;;;9.48;1.40;;;17.90;95.50;;;;;;10408806;28;20588;-38
2022/10/15 16:46:50;;;;;;;19.40;1.65;;;17.60;97.20;;;;;;10409213;28;20108;-38
2022/10/15 16:51:53;;;;;;;4.63;1.30;;;17.50;96.40;;;;;;10413848;28;20131;-40
2022/10/15 16:56:55;;;;;;;11.23;1.30;;;18.00;94.00;;;;;;10414035;28;20061;-40
2022/10/15 17:01:57;;;;;;;6.87;1.40;;;17.50;94.60;;;;;;10414011;28;20048;-40
2022/10/15 17:07:01;;;;;;;12.47;2.33;;;17.40;96.60;;;;;;10405146;28;20126;-39
2022/10/15 17:12:03;;;;;;;9.27;1.58;;;18.20;92.30;;;;;;10408585;28;20488;-40
2022/10/15 17:17:06;;;;;;;12.65;1.15;;;18.10;91.00;;;;;;10408863;28;20349;-40
2022/10/15 17:22:15;;;;;;;9.20;1.35;;;17.60;95.10;;;;;;10624769;27;20672;-40
2022/10/15 17:27:17;;;;;;;10.15;1.40;;;17.60;94.20;;;;;;10626614;27;20050;-41
2022/10/15 17:32:19;;;;;;;8.10;1.33;;;17.20;96.10;;;;;;10618171;27;20092;-41
2022/10/15 17:37:22;;;;;;;3.27;0.80;;;17.20;98.00;;;;;;10614889;27;20063;-44
2022/10/15 17:42:24;;;;;;;6.40;1.00;;;17.40;96.20;;;;;;10614569;27;20039;-44
2022/10/15 17:47:26;;;;;;;5.63;1.15;;;18.20;96.10;;;;;;10612691;27;20096;-39
2022/10/15 17:52:29;;;;;;;7.57;1.10;;;17.80;95.20;;;;;;10615146;27;20104;-40
2022/10/15 17:57:31;;;;;;;7.00;1.35;;;18.00;94.50;;;;;;10619008;27;20043;-41
2022/10/15 18:02:33;;;;;;;8.03;1.27;;;17.90;92.80;;;;;;10619450;27;20071;-41
2022/10/15 18:07:36;;;;;;;11.30;1.15;;;18.10;94.40;;;;;;10613689;27;20107;-39
2022/10/15 18:12:38;;;;;;;8.10;1.42;;;16.60;95.40;;;;;;10608181;27;20461;-41
2022/10/15 18:17:40;;;;;;;8.53;1.27;;;18.20;94.60;;;;;;10616354;27;20047;-40
2022/10/15 18:22:44;;;;;;;4.57;0.82;;;18.00;95.70;;;;;;10602539;27;20132;-41
2022/10/15 18:27:45;;;;;;;4.78;0.65;;;17.90;94.90;;;;;;10610145;27;20085;-40
2022/10/15 18:32:47;;;;;;;3.23;0.67;;;18.30;95.10;;;;;;10594066;27;20119;-42
2022/10/15 18:37:50;;;;;;;2.33;1.03;;;18.50;92.80;;;;;;10587261;27;20071;-38
2022/10/15 18:42:52;;;;;;;8.45;0.90;;;18.70;95.20;;;;;;10591848;27;21179;-41
2022/10/15 18:47:55;;;;;;;9.88;1.05;;;17.70;94.10;;;;;;10581150;27;20055;-41
2022/10/15 18:52:59;;;;;;;6.90;0.93;;;17.90;95.40;;;;;;10576361;27;20097;-40
2022/10/15 18:58:01;;;;;;;2.97;0.80;;;18.00;93.90;;;;;;10590998;27;20372;-40
2022/10/15 19:03:03;;;;;;;5.78;0.90;;;17.70;94.90;;;;;;10575649;27;20071;-40
2022/10/15 19:08:06;;;;;;;3.72;0.85;;;17.80;93.00;;;;;;10575845;27;20104;-41
2022/10/15 19:13:08;;;;;;;2.83;0.82;;;17.40;95.50;;;;;;10577939;27;20139;-40
2022/10/15 19:18:10;;;;;;;16.93;3.03;;;17.50;96.10;;;;;;10581372;27;20146;-41
2022/10/15 19:23:14;;;;;;;5.35;1.45;;;18.50;94.00;;;;;;10588414;27;20105;-41
2022/10/15 19:28:16;;;;;;;6.13;1.27;;;18.40;92.90;;;;;;10584509;27;20101;-39
2022/10/15 19:33:18;;;;;;;5.50;1.00;;;17.60;96.80;;;;;;10586532;27;20074;-42
2022/10/15 19:38:21;;;;;;;5.18;1.15;;;17.50;95.50;;;;;;10586550;27;20635;-39
2022/10/15 19:43:24;;;;;;;5.50;1.20;;;17.60;94.20;;;;;;10587729;27;20068;-40
2022/10/15 19:48:25;;;;;;;8.80;1.10;;;17.70;93.70;;;;;;10574827;27;20176;-41
2022/10/15 19:53:30;;;;;;;6.40;1.00;;;18.30;94.30;;;;;;10574716;27;20658;-41
2022/10/15 19:58:33;;;;;;;10.00;1.63;;;17.80;94.90;;;;;;10575973;27;20087;-41
2022/10/15 20:03:35;;;;;;;12.63;1.35;;;17.60;95.80;;;;;;10574635;27;20086;-38
2022/10/15 20:08:38;;;;;;;9.15;2.13;;;19.20;92.90;;;;;;10574803;27;20126;-40
2022/10/15 20:13:40;;;;;;;13.57;1.58;;;19.00;92.00;;;;;;10581420;27;20097;-40
2022/10/15 20:18:42;;;;;;;3.35;0.70;;;18.20;94.90;;;;;;10571616;28;20116;-41
2022/10/15 20:23:46;;;;;;;13.90;1.17;;;18.10;93.90;;;;;;10572016;27;21339;-41
2022/10/15 20:28:49;;;;;;;15.30;1.48;;;17.80;95.10;;;;;;10590364;27;20131;-38
2022/10/15 20:33:50;;;;;;;8.15;2.03;;;18.30;94.30;;;;;;10591407;27;20043;-40
2022/10/15 20:38:56;;;;;;;7.82;1.13;;;18.60;93.20;;;;;;10589592;27;20072;-41
2022/10/15 20:43:58;;;;;;;5.88;1.38;;;17.10;94.80;;;;;;10587306;27;20044;-40
2022/10/15 20:49:05;;;;;;;13.23;1.30;;;17.60;95.20;;;;;;10585206;27;20449;-39
2022/10/15 20:54:10;;;;;;;9.73;1.38;;;17.20;95.20;;;;;;10575473;27;20584;-42
2022/10/15 20:59:12;;;;;;;5.60;1.13;;;17.80;95.40;;;;;;10578346;27;20479;-37
2022/10/15 21:04:14;;;;;;;10.57;1.45;;;18.10;93.20;;;;;;10573046;28;20079;-38
2022/10/15 21:09:17;;;;;;;5.70;1.10;;;17.40;93.30;;;;;;10578069;27;20079;-39
2022/10/15 21:14:18;;;;;;;5.57;1.08;;;18.90;92.00;;;;;;10579138;27;20159;-40
2022/10/15 21:19:20;;;;;;;7.63;1.83;;;17.70;94.60;;;;;;10576926;28;20134;-40
2022/10/15 21:24:26;;;;;;;5.33;1.47;;;17.70;94.40;;;;;;10576922;28;20479;-39
2022/10/15 21:29:28;;;;;;;5.32;1.30;;;17.20;92.60;;;;;;10578068;28;20042;-49
2022/10/15 21:34:30;;;;;;;4.50;0.90;;;18.20;92.60;;;;;;10578395;28;20067;-40
2022/10/15 21:39:33;;;;;;;5.40;1.20;;;17.10;95.80;;;;;;10578793;28;20079;-41
2022/10/15 21:44:35;;;;;;;6.55;1.45;;;17.40;93.00;;;;;;10558731;28;20493;-34
2022/10/15 21:49:37;;;;;;;7.30;0.90;;;17.80;94.50;;;;;;10568175;28;20126;-39
2022/10/15 21:54:40;;;;;;;7.67;0.83;;;17.80;94.10;;;;;;10571721;28;20113;-40
2022/10/15 21:59:42;;;;;;;3.40;0.60;;;17.30;94.90;;;;;;10572041;28;20080;-39
2022/10/15 22:04:44;;;;;;;5.10;0.77;;;16.80;95.40;;;;;;10575292;27;20048;-39
2022/10/15 22:09:47;;;;;;;3.03;0.73;;;17.50;95.00;;;;;;10583815;27;20130;-41
2022/10/15 22:14:49;;;;;;;2.20;0.70;;;17.60;93.90;;;;;;10581590;27;20071;-42
2022/10/15 22:19:50;;;;;;;2.90;0.60;;;17.70;92.90;;;;;;10576728;27;20169;-39
2022/10/15 22:24:54;;;;;;;3.40;0.83;;;18.20;92.90;;;;;;10569173;27;20484;-39
2022/10/15 22:29:56;;;;;;;3.17;0.65;;;18.50;91.90;;;;;;10575561;27;20040;-41
2022/10/15 22:34:58;;;;;;;2.83;0.90;;;18.40;91.40;;;;;;10577957;27;20469;-40
2022/10/15 22:40:01;;;;;;;2.45;0.50;;;18.40;92.10;;;;;;10576503;27;20183;-40
2022/10/15 22:45:03;;;;;;;4.32;0.82;;;18.30;92.70;;;;;;10580291;27;20123;-40
2022/10/15 22:50:05;;;;;;;2.67;1.38;;;17.30;94.10;;;;;;10591516;27;20114;-40
2022/10/15 22:55:09;;;;;;;;;;;17.80;94.00;;;;;;10594381;27;20100;-41
2022/10/15 23:00:12;;;;;;;1.88;0.80;;;17.50;91.90;;;;;;10588365;27;19975;-39
2022/10/15 23:05:14;;;;;;;3.05;1.00;;;18.60;91.20;;;;;;10580166;27;20074;-42
2022/10/15 23:10:17;;;;;;;4.75;0.93;;;18.20;86.40;;;;;;10587122;27;20128;-41
2022/10/15 23:15:20;;;;;;;1.92;0.90;;;19.20;87.30;;;;;;10584703;27;20460;-40
2022/10/15 23:20:21;;;;;;;2.60;0.90;;;18.80;90.60;;;;;;10591610;27;20124;-41
2022/10/15 23:25:25;;;;;;;4.60;1.00;;;18.30;91.30;;;;;;10583975;27;20139;-41
2022/10/15 23:30:27;;;;;;;3.13;0.57;;;19.50;86.50;;;;;;10578298;27;20569;-41
2022/10/15 23:35:28;;;;;;;1.40;0.73;;;19.20;89.10;;;;;;10589605;27;20074;-42
2022/10/15 23:40:32;;;;;;;2.50;0.60;;;19.10;90.20;;;;;;10594242;27;20123;-42
2022/10/15 23:45:33;;;;;;;4.20;0.80;;;19.00;90.00;;;;;;10591131;27;20130;-41
2022/10/15 23:50:36;;;;;;;1.27;0.52;;;18.10;91.50;;;;;;10582953;27;20133;-43
2022/10/15 23:55:40;;;;;;;1.80;0.80;;;17.90;91.10;;;;;;10580077;27;20549;-40
